Colton, Washington
Current Conditions -  °F | °C
As of 12:53 PM on Friday 31 Oct 2014 (Local Time) from KPUW Reporting Station
Broken Clouds Broken Clouds  
Wind Chill: 59°   Ceiling: 12000
Heat Index: 59°   Visibility: 10mi
Dew Point: 46°   Wind: 3mph
Humidity: 62%   Direction: 150°SSE
Pressure: 29.75"   Gusts: NA
Location:  46.57°N, 117.13°W
Report Text: KPUW 311953Z AUTO 15003KT 10SM BKN120 15/08 A2975 RMK AO2 SLP071 T01500078
Loading
Personal Weather Stations






























Interactive Weather Map
Tropical Storm Tracking
New forecast layout! Learn more

10-Day Weather Forecast

Advertisements
Track Severe Weather on mobile